createdAt,value
2017-06-13T00:01:27.502Z,47.70
2017-06-13T00:03:55.802Z,47.50
2017-06-13T00:06:24.078Z,47.60
2017-06-13T00:08:52.361Z,47.60
2017-06-13T00:11:20.643Z,47.90
2017-06-13T00:13:48.923Z,48.00
2017-06-13T00:16:17.191Z,47.90
2017-06-13T00:18:45.475Z,48.60
2017-06-13T00:21:13.743Z,48.50
2017-06-13T00:23:42.024Z,48.80
2017-06-13T00:26:10.291Z,48.60
2017-06-13T00:28:38.587Z,48.80
2017-06-13T00:31:06.863Z,49.00
2017-06-13T00:33:35.139Z,49.20
2017-06-13T00:36:03.430Z,49.20
2017-06-13T00:38:31.707Z,49.40
2017-06-13T00:40:59.994Z,49.70
2017-06-13T00:43:28.269Z,50.00
2017-06-13T00:45:56.548Z,50.40
2017-06-13T00:48:24.812Z,50.30
2017-06-13T00:50:53.092Z,50.40
2017-06-13T00:53:21.369Z,51.00
2017-06-13T00:55:49.655Z,51.80
2017-06-13T00:58:17.932Z,51.30
2017-06-13T01:03:46.887Z,51.80
2017-06-13T01:06:15.179Z,51.70
2017-06-13T01:08:43.451Z,51.70
2017-06-13T01:11:11.739Z,52.10
2017-06-13T01:13:40.011Z,52.00
2017-06-13T01:16:08.316Z,51.90
2017-06-13T01:18:37.350Z,51.90
2017-06-13T01:21:05.938Z,51.80
2017-06-13T01:23:34.215Z,51.90
2017-06-13T01:26:02.476Z,51.60
2017-06-13T01:28:30.770Z,51.70
2017-06-13T01:30:59.042Z,51.70
2017-06-13T01:33:27.323Z,51.40
2017-06-13T01:35:55.597Z,51.10
2017-06-13T01:38:24.989Z,51.70
2017-06-13T01:40:53.250Z,52.00
2017-06-13T01:43:21.546Z,52.10
2017-06-13T01:45:49.811Z,52.10
2017-06-13T01:48:18.096Z,52.40
2017-06-13T01:50:46.377Z,52.20
2017-06-13T01:53:14.659Z,52.30
2017-06-13T01:55:42.927Z,52.60
2017-06-13T01:58:11.206Z,52.80
2017-06-13T02:00:39.471Z,52.70
2017-06-13T02:03:07.755Z,53.00
2017-06-13T02:05:36.027Z,53.00
2017-06-13T02:08:04.329Z,52.90
2017-06-13T02:10:32.601Z,53.00
2017-06-13T02:13:00.865Z,53.50
2017-06-13T02:15:29.155Z,53.70
2017-06-13T02:17:57.424Z,53.80
2017-06-13T02:20:25.718Z,54.20
2017-06-13T02:22:53.979Z,54.40
2017-06-13T02:25:22.275Z,54.50
2017-06-13T02:27:50.547Z,54.80
2017-06-13T02:30:18.849Z,54.90
2017-06-13T02:32:47.127Z,55.00
2017-06-13T02:35:15.419Z,55.20
2017-06-13T02:37:43.682Z,55.20
2017-06-13T02:40:11.968Z,55.50
2017-06-13T02:42:40.231Z,55.70
2017-06-13T02:45:08.511Z,55.80
2017-06-13T02:47:36.778Z,56.00
2017-06-13T02:50:05.076Z,56.10
2017-06-13T02:52:33.339Z,56.80
2017-06-13T02:55:01.602Z,56.20
2017-06-13T02:57:30.792Z,56.40
2017-06-13T02:59:59.055Z,56.40
2017-06-13T03:02:31.805Z,56.60
2017-06-13T03:05:00.830Z,56.70
2017-06-13T03:07:29.157Z,56.70
2017-06-13T03:09:57.414Z,56.80
2017-06-13T03:12:25.699Z,56.90
2017-06-13T03:14:53.966Z,56.90
2017-06-13T03:17:22.248Z,57.20
2017-06-13T03:19:50.514Z,57.30
2017-06-13T03:22:18.799Z,57.50
2017-06-13T03:24:48.985Z,57.50
2017-06-13T03:27:18.476Z,57.50
2017-06-13T03:29:48.643Z,57.50
2017-06-13T03:32:21.139Z,57.60
2017-06-13T03:34:54.289Z,57.70
2017-06-13T03:37:26.216Z,58.00
2017-06-13T03:39:57.387Z,58.00
2017-06-13T03:42:30.912Z,58.10
2017-06-13T03:44:59.393Z,58.00
2017-06-13T03:47:27.658Z,58.00
2017-06-13T03:49:55.952Z,58.60
2017-06-13T03:52:24.220Z,58.30
2017-06-13T03:54:52.523Z,58.30
2017-06-13T03:57:20.794Z,58.30
2017-06-13T03:59:49.077Z,58.30
2017-06-13T04:02:17.353Z,58.50
2017-06-13T04:04:45.674Z,58.50
2017-06-13T04:07:13.942Z,58.30
2017-06-13T04:09:42.222Z,58.30
2017-06-13T04:12:10.487Z,58.20
2017-06-13T04:14:39.532Z,58.30
2017-06-13T04:17:07.818Z,58.30
2017-06-13T04:19:36.111Z,58.30
2017-06-13T04:22:04.379Z,59.00
2017-06-13T04:24:32.662Z,58.90
2017-06-13T04:27:00.926Z,58.90
2017-06-13T04:29:29.206Z,59.00
2017-06-13T04:31:57.478Z,58.70
2017-06-13T04:34:25.754Z,58.90
2017-06-13T04:36:54.058Z,58.60
2017-06-13T04:39:22.331Z,58.00
2017-06-13T04:41:50.654Z,58.60
2017-06-13T04:44:18.920Z,58.10
2017-06-13T04:46:47.981Z,58.30
2017-06-13T04:49:16.243Z,58.40
2017-06-13T04:51:44.526Z,57.70
2017-06-13T04:54:12.787Z,57.70
2017-06-13T04:56:41.071Z,57.10
2017-06-13T04:59:09.339Z,56.50
2017-06-13T05:01:37.619Z,55.00
2017-06-13T05:04:05.889Z,54.80
2017-06-13T05:06:34.166Z,53.40
2017-06-13T05:09:02.442Z,52.60
2017-06-13T05:11:30.743Z,51.50
2017-06-13T05:13:59.005Z,51.40
2017-06-13T05:16:27.270Z,50.70
2017-06-13T05:18:55.555Z,49.30
2017-06-13T05:21:23.822Z,47.40
2017-06-13T05:23:52.102Z,47.40
2017-06-13T05:26:20.370Z,48.10
2017-06-13T05:28:48.650Z,47.20
2017-06-13T05:31:16.907Z,46.80
2017-06-13T05:33:45.194Z,46.10
2017-06-13T05:36:13.461Z,45.30
2017-06-13T05:38:41.738Z,45.40
2017-06-13T05:41:10.006Z,45.50
2017-06-13T05:43:38.294Z,44.60
2017-06-13T05:46:06.569Z,45.20
2017-06-13T05:48:34.875Z,44.50
2017-06-13T05:51:03.186Z,43.50
2017-06-13T05:53:31.438Z,41.70
2017-06-13T05:55:59.725Z,41.80
2017-06-13T05:58:27.988Z,42.30
2017-06-13T06:00:56.277Z,43.40
2017-06-13T06:03:24.547Z,42.60
2017-06-13T06:05:52.834Z,42.30
2017-06-13T06:08:21.107Z,41.50
2017-06-13T06:10:49.400Z,41.60
2017-06-13T06:13:17.676Z,41.70
2017-06-13T06:15:45.992Z,41.10
2017-06-13T06:18:14.262Z,42.00
2017-06-13T06:20:43.314Z,41.00
2017-06-13T06:23:11.583Z,40.90
2017-06-13T06:25:39.886Z,41.80
2017-06-13T06:28:08.150Z,41.20
2017-06-13T06:30:36.418Z,41.70
2017-06-13T06:33:04.702Z,41.40
2017-06-13T06:35:32.961Z,41.20
2017-06-13T06:38:01.263Z,41.30
2017-06-13T06:40:29.538Z,41.40
2017-06-13T06:42:57.818Z,42.00
2017-06-13T06:45:26.090Z,42.80
2017-06-13T06:47:54.370Z,42.60
2017-06-13T06:50:22.639Z,42.30
2017-06-13T06:52:50.919Z,42.40
2017-06-13T06:55:19.245Z,41.10
2017-06-13T06:57:48.338Z,41.60
2017-06-13T07:00:16.608Z,41.60
2017-06-13T07:02:45.672Z,40.50
2017-06-13T07:05:13.937Z,40.50
2017-06-13T07:07:42.207Z,41.30
2017-06-13T07:10:10.503Z,40.40
2017-06-13T07:12:38.781Z,41.00
2017-06-13T07:15:07.072Z,42.40
2017-06-13T07:17:36.126Z,40.50
2017-06-13T07:20:04.411Z,40.90
2017-06-13T07:22:32.691Z,40.30
2017-06-13T07:25:00.978Z,39.80
2017-06-13T07:27:29.252Z,40.90
2017-06-13T07:29:57.532Z,40.40
2017-06-13T07:32:25.831Z,41.30
2017-06-13T07:34:54.134Z,41.20
2017-06-13T07:37:22.394Z,41.10
2017-06-13T07:39:51.447Z,39.60
2017-06-13T07:42:19.719Z,39.50
2017-06-13T07:44:47.996Z,39.50
2017-06-13T07:47:16.287Z,40.90
2017-06-13T07:49:44.601Z,40.30
2017-06-13T07:52:13.641Z,41.20
2017-06-13T07:54:41.929Z,41.10
2017-06-13T07:57:10.224Z,40.20
2017-06-13T07:59:39.338Z,40.00
2017-06-13T08:02:08.572Z,39.80
2017-06-13T08:04:36.839Z,39.80
2017-06-13T08:07:05.126Z,40.50
2017-06-13T08:09:33.394Z,39.30
2017-06-13T08:12:01.723Z,39.60
2017-06-13T08:14:30.068Z,39.70
2017-06-13T08:16:58.350Z,40.70
2017-06-13T08:19:26.626Z,39.90
2017-06-13T08:21:54.911Z,40.30
2017-06-13T08:24:23.186Z,40.50
2017-06-13T08:26:51.487Z,41.20
2017-06-13T08:29:19.752Z,41.60
2017-06-13T08:31:48.042Z,41.20
2017-06-13T08:34:16.303Z,42.00
2017-06-13T08:36:44.635Z,41.20
2017-06-13T08:39:12.901Z,41.10
2017-06-13T08:41:41.927Z,41.10
2017-06-13T08:44:10.214Z,41.00
2017-06-13T08:46:38.482Z,42.20
2017-06-13T08:49:06.808Z,41.60
2017-06-13T08:51:35.082Z,41.80
2017-06-13T08:54:03.404Z,42.40
2017-06-13T08:56:31.681Z,41.90
2017-06-13T08:58:59.956Z,41.90
2017-06-13T09:01:28.247Z,42.30
2017-06-13T09:03:56.571Z,40.80
2017-06-13T09:06:24.859Z,41.50
2017-06-13T09:08:53.943Z,41.70
2017-06-13T09:11:22.211Z,42.30
2017-06-13T09:13:50.498Z,42.40
2017-06-13T09:16:18.767Z,41.60
2017-06-13T09:18:47.072Z,42.20
2017-06-13T09:21:16.107Z,42.00
2017-06-13T09:23:44.371Z,42.00
2017-06-13T09:26:12.670Z,42.30
2017-06-13T09:28:40.945Z,42.10
2017-06-13T09:31:09.264Z,41.40
2017-06-13T09:33:37.532Z,40.90
2017-06-13T09:36:06.595Z,41.10
2017-06-13T09:38:34.869Z,41.10
2017-06-13T09:41:03.170Z,42.00
2017-06-13T09:43:31.470Z,42.90
2017-06-13T09:46:00.322Z,40.70
2017-06-13T09:48:28.591Z,40.20
2017-06-13T09:50:56.883Z,40.70
2017-06-13T09:53:25.157Z,41.40
2017-06-13T09:55:53.451Z,41.20
2017-06-13T09:58:22.770Z,40.80
2017-06-13T10:00:51.058Z,40.70
2017-06-13T10:03:19.347Z,41.60
2017-06-13T10:05:47.716Z,41.60
2017-06-13T10:08:16.013Z,40.30
2017-06-13T10:10:44.289Z,41.80
2017-06-13T10:13:12.574Z,40.70
2017-06-13T10:15:40.853Z,41.70
2017-06-13T10:18:09.144Z,41.60
2017-06-13T10:20:37.422Z,40.80
2017-06-13T10:23:05.769Z,41.60
2017-06-13T10:25:34.047Z,41.50
2017-06-13T10:28:02.329Z,40.40
2017-06-13T10:30:30.628Z,40.90
2017-06-13T10:32:59.269Z,40.40
2017-06-13T10:35:28.497Z,40.20
2017-06-13T10:37:56.771Z,40.60
2017-06-13T10:40:25.067Z,41.10
2017-06-13T10:42:53.591Z,40.10
2017-06-13T10:45:21.896Z,41.30
2017-06-13T10:47:50.186Z,40.60
2017-06-13T10:50:18.470Z,40.40
2017-06-13T10:52:46.748Z,39.50
2017-06-13T10:55:15.075Z,39.50
2017-06-13T10:57:44.120Z,39.50
2017-06-13T11:00:12.401Z,39.50
2017-06-13T11:02:40.700Z,39.80
2017-06-13T11:05:08.982Z,39.40
2017-06-13T11:07:37.333Z,40.30
2017-06-13T11:10:05.618Z,39.50
2017-06-13T11:12:33.903Z,39.40
2017-06-13T11:15:02.179Z,39.10
2017-06-13T11:17:30.475Z,38.80
2017-06-13T11:19:58.780Z,39.50
2017-06-13T11:22:27.230Z,39.20
2017-06-13T11:24:55.637Z,39.10
2017-06-13T11:27:23.932Z,39.00
2017-06-13T11:29:52.227Z,39.50
2017-06-13T11:32:20.527Z,39.40
2017-06-13T11:34:48.807Z,39.60
2017-06-13T11:37:17.132Z,39.40
2017-06-13T11:39:45.419Z,40.10
2017-06-13T11:42:13.706Z,39.50
2017-06-13T11:44:42.025Z,39.70
2017-06-13T11:47:10.311Z,39.00
2017-06-13T11:49:38.664Z,39.70
2017-06-13T11:52:06.944Z,38.70
2017-06-13T11:54:35.237Z,38.70
2017-06-13T11:57:03.535Z,39.30
2017-06-13T11:59:31.843Z,38.20
2017-06-13T12:02:00.131Z,38.50
2017-06-13T12:04:28.468Z,39.40
2017-06-13T12:06:56.746Z,38.50
2017-06-13T12:09:25.052Z,37.60
2017-06-13T12:11:53.375Z,37.80
2017-06-13T12:14:21.679Z,38.00
2017-06-13T12:16:49.968Z,38.50
2017-06-13T12:19:18.300Z,38.80
2017-06-13T12:21:46.576Z,38.90
2017-06-13T12:24:14.860Z,38.60
2017-06-13T12:26:43.154Z,37.90
2017-06-13T12:29:12.277Z,36.80
2017-06-13T12:31:40.577Z,36.70
2017-06-13T12:34:08.850Z,37.30
2017-06-13T12:36:37.155Z,36.80
2017-06-13T12:39:05.455Z,37.90
2017-06-13T12:41:33.753Z,39.50
2017-06-13T12:44:02.038Z,38.00
2017-06-13T12:46:30.337Z,37.00
2017-06-13T12:48:58.660Z,36.20
2017-06-13T12:51:26.959Z,38.10
2017-06-13T12:53:55.235Z,37.70
2017-06-13T12:56:23.580Z,38.50
2017-06-13T12:58:51.860Z,37.90
2017-06-13T13:01:20.195Z,37.50
2017-06-13T13:03:48.494Z,39.10
2017-06-13T13:06:16.839Z,37.90
2017-06-13T13:08:45.192Z,37.70
2017-06-13T13:11:13.490Z,37.30
2017-06-13T13:13:41.800Z,37.80
2017-06-13T13:16:10.082Z,37.70
2017-06-13T13:18:38.424Z,37.10
2017-06-13T13:21:07.156Z,37.90
2017-06-13T13:23:35.453Z,38.10
2017-06-13T13:26:03.747Z,37.90
2017-06-13T13:28:32.058Z,37.80
2017-06-13T13:31:00.356Z,37.70
2017-06-13T13:33:28.692Z,37.70
2017-06-13T13:35:57.460Z,38.00
2017-06-13T13:38:25.744Z,37.60
2017-06-13T13:40:54.815Z,38.60
2017-06-13T13:43:23.159Z,38.60
2017-06-13T13:45:51.482Z,38.30
2017-06-13T13:48:19.756Z,38.30
2017-06-13T13:50:48.064Z,38.00
2017-06-13T13:53:17.117Z,39.10
2017-06-13T13:55:45.418Z,39.10
2017-06-13T13:58:13.708Z,40.30
2017-06-13T14:00:42.775Z,39.90
2017-06-13T14:03:11.052Z,39.90
2017-06-13T14:05:39.350Z,39.90
2017-06-13T14:08:07.667Z,40.80
2017-06-13T14:10:36.144Z,41.00
2017-06-13T14:13:04.440Z,40.10
2017-06-13T14:15:32.721Z,40.80
2017-06-13T14:18:01.066Z,41.10
2017-06-13T14:20:29.347Z,40.40
2017-06-13T14:22:57.643Z,40.20
2017-06-13T14:25:25.916Z,40.60
2017-06-13T14:27:56.309Z,40.40
2017-06-13T14:30:25.361Z,40.40
2017-06-13T14:32:53.765Z,40.50
2017-06-13T14:35:22.044Z,40.50
2017-06-13T14:37:50.338Z,40.30
2017-06-13T14:40:18.850Z,40.60
2017-06-13T14:42:47.204Z,40.60
2017-06-13T14:45:15.478Z,40.00
2017-06-13T14:47:43.812Z,40.60
2017-06-13T14:50:12.235Z,40.70
2017-06-13T14:52:41.310Z,40.70
2017-06-13T14:55:09.624Z,40.50
2017-06-13T14:57:37.903Z,40.00
2017-06-13T15:00:06.988Z,40.90
2017-06-13T15:02:35.265Z,40.30
2017-06-13T15:05:03.567Z,40.30
2017-06-13T15:07:31.846Z,39.90
2017-06-13T15:10:00.143Z,40.90
2017-06-13T15:12:29.180Z,40.60
2017-06-13T15:14:57.467Z,40.60
2017-06-13T15:17:25.744Z,40.40
2017-06-13T15:19:54.034Z,40.40
2017-06-13T15:22:22.321Z,41.10
2017-06-13T15:24:51.414Z,40.90
2017-06-13T15:27:19.691Z,40.50
2017-06-13T15:29:47.983Z,41.20
2017-06-13T15:32:16.292Z,41.00
2017-06-13T15:34:44.591Z,40.30
2017-06-13T15:37:12.876Z,40.90
2017-06-13T15:39:41.147Z,40.30
2017-06-13T15:42:09.452Z,40.60
2017-06-13T15:44:37.712Z,42.50
2017-06-13T15:47:06.002Z,40.30
2017-06-13T15:49:34.275Z,40.10
2017-06-13T15:52:02.571Z,41.10
2017-06-13T15:54:30.851Z,40.90
2017-06-13T15:56:59.235Z,41.40
2017-06-13T15:59:28.274Z,41.20
2017-06-13T16:01:56.564Z,41.10
2017-06-13T16:04:24.844Z,41.50
2017-06-13T16:06:53.136Z,40.80
2017-06-13T16:09:21.414Z,41.10
2017-06-13T16:11:49.707Z,41.20
2017-06-13T16:14:17.974Z,41.30
2017-06-13T16:16:46.281Z,41.50
2017-06-13T16:19:14.559Z,41.40
2017-06-13T16:21:42.830Z,41.40
2017-06-13T16:24:11.890Z,42.20
2017-06-13T16:26:40.159Z,41.60
2017-06-13T16:29:08.446Z,40.90
2017-06-13T16:31:36.725Z,41.80
2017-06-13T16:34:05.010Z,41.10
2017-06-13T16:36:33.287Z,41.00
2017-06-13T16:39:01.590Z,40.30
2017-06-13T16:41:29.903Z,40.70
2017-06-13T16:43:58.203Z,40.20
2017-06-13T16:46:26.479Z,39.80
2017-06-13T16:48:54.767Z,40.10
2017-06-13T16:51:23.063Z,40.00
2017-06-13T16:53:51.352Z,39.40
2017-06-13T16:56:20.396Z,40.50
2017-06-13T16:58:48.688Z,40.60
2017-06-13T17:01:16.960Z,39.80
2017-06-13T17:03:45.294Z,40.20
2017-06-13T17:06:13.574Z,40.00
2017-06-13T17:08:41.848Z,39.50
2017-06-13T17:11:10.929Z,39.80
2017-06-13T17:13:39.983Z,39.70
2017-06-13T17:16:08.295Z,39.50
2017-06-13T17:18:36.566Z,39.30
2017-06-13T17:21:04.855Z,38.40
2017-06-13T17:23:34.008Z,37.30
2017-06-13T17:26:02.344Z,37.60
2017-06-13T17:28:32.200Z,37.70
2017-06-13T17:31:00.561Z,37.30
2017-06-13T17:33:28.849Z,37.10
2017-06-13T17:35:57.166Z,37.70
2017-06-13T17:38:25.427Z,37.30
2017-06-13T17:40:53.727Z,37.90
2017-06-13T17:43:22.008Z,37.60
2017-06-13T17:45:50.431Z,36.60
2017-06-13T17:48:18.708Z,36.50
2017-06-13T17:50:47.076Z,36.10
2017-06-13T17:53:15.350Z,37.20
2017-06-13T17:55:43.640Z,36.60
2017-06-13T17:58:11.946Z,37.00
2017-06-13T18:00:40.215Z,37.40
2017-06-13T18:03:08.531Z,37.10
2017-06-13T18:05:37.575Z,37.60
2017-06-13T18:08:05.860Z,37.00
2017-06-13T18:10:34.133Z,36.80
2017-06-13T18:13:02.435Z,37.00
2017-06-13T18:15:30.736Z,37.40
2017-06-13T18:17:59.795Z,38.40
2017-06-13T18:20:28.074Z,37.90
2017-06-13T18:22:56.379Z,37.70
2017-06-13T18:25:24.647Z,37.70
2017-06-13T18:27:52.951Z,37.90
2017-06-13T18:30:21.999Z,38.00
2017-06-13T18:32:50.277Z,37.90
2017-06-13T18:35:18.582Z,38.40
2017-06-13T18:37:46.849Z,38.60
2017-06-13T18:40:15.151Z,38.60
2017-06-13T18:42:44.196Z,39.50
2017-06-13T18:45:12.495Z,39.50
2017-06-13T18:47:40.787Z,39.40
2017-06-13T18:50:09.092Z,39.80
2017-06-13T18:52:37.401Z,40.20
2017-06-13T18:55:05.690Z,40.20
2017-06-13T18:57:33.975Z,40.60
2017-06-13T19:00:02.280Z,41.10
2017-06-13T19:02:30.596Z,41.10
2017-06-13T19:04:58.878Z,40.50
2017-06-13T19:07:27.987Z,41.20
2017-06-13T19:09:56.275Z,41.40
2017-06-13T19:12:24.568Z,41.40
2017-06-13T19:14:52.868Z,41.40
2017-06-13T19:17:21.141Z,41.50
2017-06-13T19:19:50.185Z,41.80
2017-06-13T19:22:18.466Z,42.10
2017-06-13T19:24:46.739Z,42.10
2017-06-13T19:27:15.035Z,42.10
2017-06-13T19:29:43.307Z,42.60
2017-06-13T19:32:11.630Z,42.50
2017-06-13T19:34:39.918Z,43.00
2017-06-13T19:37:08.223Z,42.90
2017-06-13T19:39:36.523Z,43.20
2017-06-13T19:42:04.864Z,43.40
2017-06-13T19:44:33.143Z,43.50
2017-06-13T19:47:01.448Z,43.80
2017-06-13T19:49:29.776Z,43.80
2017-06-13T19:51:58.850Z,44.40
2017-06-13T19:54:27.120Z,44.40
2017-06-13T19:56:55.400Z,44.60
2017-06-13T19:59:23.695Z,45.10
2017-06-13T20:01:52.742Z,44.90
2017-06-13T20:04:21.031Z,45.50
2017-06-13T20:06:49.376Z,44.90
2017-06-13T20:09:17.669Z,45.20
2017-06-13T20:11:45.967Z,45.00
2017-06-13T20:14:14.274Z,45.30
2017-06-13T20:16:42.563Z,45.30
2017-06-13T20:19:10.847Z,46.00
2017-06-13T20:21:42.954Z,46.10
2017-06-13T20:24:12.243Z,46.20
2017-06-13T20:26:40.526Z,46.50
2017-06-13T20:29:14.624Z,46.70
2017-06-13T20:31:42.901Z,46.80
2017-06-13T20:34:11.204Z,47.20
2017-06-13T20:36:39.472Z,47.20
2017-06-13T20:39:07.860Z,47.60
2017-06-13T20:41:36.127Z,47.90
2017-06-13T20:44:04.429Z,48.40
2017-06-13T20:46:32.698Z,48.30
2017-06-13T20:49:00.978Z,48.60
2017-06-13T20:51:29.283Z,48.70
2017-06-13T20:53:58.326Z,49.20
2017-06-13T20:56:26.616Z,49.30
2017-06-13T20:58:54.887Z,49.50
2017-06-13T21:01:23.183Z,49.70
2017-06-13T21:03:51.447Z,49.70
2017-06-13T21:06:19.739Z,49.70
2017-06-13T21:08:48.011Z,49.70
2017-06-13T21:11:16.303Z,49.70
2017-06-13T21:13:44.579Z,49.90
2017-06-13T21:16:12.875Z,50.00
2017-06-13T21:18:41.150Z,50.20
2017-06-13T21:21:10.204Z,51.50
2017-06-13T21:23:38.471Z,50.90
2017-06-13T21:26:06.789Z,50.90
2017-06-13T21:28:35.064Z,51.00
2017-06-13T21:31:03.343Z,51.30
2017-06-13T21:33:31.629Z,51.00
2017-06-13T21:35:59.899Z,51.00
2017-06-13T21:38:28.191Z,51.10
2017-06-13T21:40:57.238Z,51.20
2017-06-13T21:43:25.538Z,51.20
2017-06-13T21:45:53.808Z,51.40
2017-06-13T21:48:22.100Z,51.60
2017-06-13T21:50:50.378Z,51.60
2017-06-13T21:53:18.671Z,51.70
2017-06-13T21:55:47.708Z,51.80
2017-06-13T21:58:16.013Z,51.80
2017-06-13T22:00:44.287Z,52.20
2017-06-13T22:03:12.566Z,52.30
2017-06-13T22:05:40.834Z,52.40
2017-06-13T22:08:09.100Z,52.30
2017-06-13T22:10:37.384Z,52.50
2017-06-13T22:13:05.674Z,52.50
2017-06-13T22:15:33.976Z,52.50
2017-06-13T22:18:02.248Z,52.50
2017-06-13T22:20:30.540Z,52.40
2017-06-13T22:22:59.582Z,52.60
2017-06-13T22:25:27.867Z,52.50
2017-06-13T22:27:56.140Z,52.40
2017-06-13T22:30:24.435Z,52.30
2017-06-13T22:32:52.712Z,52.10
2017-06-13T22:35:21.020Z,52.40
2017-06-13T22:37:50.063Z,52.00
2017-06-13T22:40:18.328Z,52.00
2017-06-13T22:42:46.625Z,51.90
2017-06-13T22:45:14.895Z,51.90
2017-06-13T22:47:43.186Z,52.40
2017-06-13T22:50:11.459Z,52.10
2017-06-13T22:52:39.752Z,52.30
2017-06-13T22:55:08.028Z,52.70
2017-06-13T22:57:36.316Z,52.70
2017-06-13T23:00:04.600Z,52.70
2017-06-13T23:02:32.894Z,52.50
2017-06-13T23:05:01.934Z,52.60
2017-06-13T23:07:30.227Z,52.50
2017-06-13T23:09:58.527Z,52.30
2017-06-13T23:12:26.808Z,52.60
2017-06-13T23:14:55.123Z,52.80
2017-06-13T23:17:23.393Z,52.60
2017-06-13T23:19:51.694Z,52.70
2017-06-13T23:22:19.963Z,52.80
2017-06-13T23:24:48.249Z,52.60
2017-06-13T23:27:16.531Z,52.30
2017-06-13T23:29:44.824Z,52.40
2017-06-13T23:32:13.100Z,52.80
2017-06-13T23:34:41.378Z,52.60
2017-06-13T23:37:09.677Z,52.70
2017-06-13T23:39:37.955Z,52.60
2017-06-13T23:42:06.239Z,53.20
2017-06-13T23:44:34.514Z,53.10
2017-06-13T23:47:03.568Z,53.60
2017-06-13T23:49:31.846Z,53.50
2017-06-13T23:52:00.123Z,53.50
2017-06-13T23:54:28.403Z,53.60
2017-06-13T23:56:56.686Z,54.10
2017-06-13T23:59:25.024Z,53.90
